Time;durP1;ratioP1;P1;durP2;ratioP2;P2;SDS_P1;SDS_P2;PMS_P1;PMS_P2;Temp;Humidity;BMP_temperature;BMP_pressure;BME280_temperature;BME280_humidity;BME280_pressure;Samples;Min_cycle;Max_cycle;Signal;HPM_P1;HPM_P2
2022/05/29 00:01:50;;;;;;;1.58;0.70;;;10.00;99.90;;;;;;5055553;28;20477;-70
2022/05/29 00:04:16;;;;;;;1.92;0.70;;;10.00;99.90;;;;;;5035053;28;20036;-70
2022/05/29 00:06:45;;;;;;;1.60;0.82;;;9.90;99.90;;;;;;5049110;28;20039;-70
2022/05/29 00:09:16;;;;;;;1.13;0.68;;;9.90;99.90;;;;;;5049715;28;20490;-70
2022/05/29 00:11:42;;;;;;;1.42;0.70;;;9.90;99.90;;;;;;5067389;28;21813;-70
2022/05/29 00:14:07;;;;;;;1.55;0.82;;;9.90;99.90;;;;;;5062565;28;20029;-70
2022/05/29 00:16:33;;;;;;;1.50;0.73;;;9.90;99.90;;;;;;5051394;28;20523;-70
2022/05/29 00:18:58;;;;;;;5.55;1.02;;;9.90;99.90;;;;;;5065912;28;20155;-70
2022/05/29 00:21:24;;;;;;;2.70;0.95;;;9.90;99.90;;;;;;5052024;28;20048;-70
2022/05/29 00:23:50;;;;;;;3.67;0.90;;;9.90;99.90;;;;;;5033229;28;20052;-70
2022/05/29 00:26:17;;;;;;;2.63;0.93;;;9.90;99.90;;;;;;5055488;28;20076;-70
2022/05/29 00:28:43;;;;;;;0.93;0.60;;;9.90;99.90;;;;;;5064202;28;20693;-70
2022/05/29 00:31:09;;;;;;;1.90;0.63;;;9.90;99.90;;;;;;5030209;28;20047;-69
2022/05/29 00:33:35;;;;;;;2.08;0.88;;;9.90;99.90;;;;;;5049027;28;20059;-70
2022/05/29 00:36:01;;;;;;;6.95;1.10;;;9.90;99.90;;;;;;5051591;28;20103;-70
2022/05/29 00:38:27;;;;;;;3.17;1.00;;;9.80;99.90;;;;;;5050923;28;20032;-70
2022/05/29 00:41:17;;;;;;;1.48;0.75;;;9.90;99.90;;;;;;5048541;28;20115;-70
2022/05/29 00:43:45;;;;;;;2.67;0.90;;;9.80;99.90;;;;;;5046894;28;20042;-70
2022/05/29 00:46:12;;;;;;;4.50;1.05;;;9.80;99.90;;;;;;5039414;28;20040;-70
2022/05/29 00:48:38;;;;;;;3.63;0.95;;;9.80;99.90;;;;;;5054649;28;20064;-70
2022/05/29 00:51:10;;;;;;;2.45;1.00;;;9.80;99.90;;;;;;5034910;28;20055;-70
2022/05/29 00:53:38;;;;;;;2.20;0.80;;;9.80;99.90;;;;;;5037279;28;20044;-70
2022/05/29 00:56:10;;;;;;;1.10;0.50;;;9.80;99.90;;;;;;5046498;28;20036;-69
2022/05/29 00:58:36;;;;;;;1.35;1.00;;;9.80;99.90;;;;;;5050275;28;20046;-70
2022/05/29 01:01:03;;;;;;;2.45;0.60;;;9.70;99.90;;;;;;5048632;28;20123;-69
2022/05/29 01:03:28;;;;;;;3.63;1.13;;;9.70;99.90;;;;;;5047616;28;20063;-70
2022/05/29 01:05:54;;;;;;;1.45;0.82;;;9.70;99.90;;;;;;5050075;28;20044;-70
2022/05/29 01:08:26;;;;;;;1.17;0.68;;;9.70;99.90;;;;;;5048211;28;20043;-70
2022/05/29 01:11:04;;;;;;;5.15;0.80;;;9.70;99.90;;;;;;5046477;28;20044;-70
2022/05/29 01:13:54;;;;;;;2.20;0.80;;;9.70;99.90;;;;;;5079979;28;20044;-69
2022/05/29 01:16:27;;;;;;;6.13;1.10;;;9.70;99.90;;;;;;5050675;28;20075;-70
2022/05/29 01:19:20;;;;;;;1.45;0.82;;;9.70;99.90;;;;;;5048476;28;20090;-70
2022/05/29 01:22:01;;;;;;;2.30;1.00;;;9.70;99.90;;;;;;5036436;28;20044;-70
2022/05/29 01:24:57;;;;;;;3.50;0.68;;;9.70;99.90;;;;;;5064730;28;20040;-70
2022/05/29 01:28:00;;;;;;;7.63;1.95;;;9.70;99.90;;;;;;5048844;28;20043;-70
2022/05/29 01:30:29;;;;;;;1.73;0.60;;;9.60;99.90;;;;;;5047309;28;20055;-70
2022/05/29 01:33:33;;;;;;;6.63;0.90;;;9.60;99.90;;;;;;5054839;28;20051;-69
2022/05/29 01:36:13;;;;;;;3.38;0.70;;;9.60;99.90;;;;;;5051912;28;20060;-70
2022/05/29 01:38:46;;;;;;;4.28;1.00;;;9.50;99.90;;;;;;5054543;28;21780;-70
2022/05/29 01:41:35;;;;;;;2.35;0.80;;;9.60;99.90;;;;;;5054389;28;21613;-70
2022/05/29 01:44:14;;;;;;;1.17;0.63;;;9.60;99.90;;;;;;5052750;28;20138;-70
2022/05/29 01:46:45;;;;;;;2.72;0.98;;;9.60;99.90;;;;;;5054610;28;20048;-70
2022/05/29 01:49:23;;;;;;;0.90;0.63;;;9.60;99.90;;;;;;5083052;28;20040;-70
2022/05/29 01:51:52;;;;;;;2.00;0.95;;;9.60;99.90;;;;;;5060392;28;20036;-70
2022/05/29 01:54:20;;;;;;;3.58;0.63;;;9.60;99.90;;;;;;5073527;28;20048;-70
2022/05/29 01:56:50;;;;;;;7.40;1.08;;;9.60;99.90;;;;;;5044912;28;20171;-70
2022/05/29 01:59:23;;;;;;;1.63;0.93;;;9.60;99.90;;;;;;5043059;28;20089;-70
2022/05/29 02:01:56;;;;;;;4.10;1.00;;;9.60;99.90;;;;;;5072731;28;20119;-70
2022/05/29 02:04:26;;;;;;;3.63;0.77;;;9.60;99.90;;;;;;5057197;28;20040;-69
2022/05/29 02:09:44;;;;;;;5.97;1.08;;;9.60;99.90;;;;;;5057876;28;20070;-70
2022/05/29 02:12:16;;;;;;;1.63;0.85;;;9.60;99.90;;;;;;5053916;28;20032;-70
2022/05/29 02:14:48;;;;;;;2.75;0.88;;;9.60;99.90;;;;;;5054296;28;20060;-70
2022/05/29 02:17:19;;;;;;;1.63;0.85;;;9.60;99.90;;;;;;5040646;28;20028;-70
2022/05/29 02:20:03;;;;;;;1.90;0.52;;;9.60;99.90;;;;;;5038340;28;20436;-70
2022/05/29 02:22:30;;;;;;;1.42;0.68;;;9.60;99.90;;;;;;5053853;28;20033;-70
2022/05/29 02:25:02;;;;;;;3.55;1.13;;;9.60;99.90;;;;;;5055382;28;20041;-70
2022/05/29 02:27:55;;;;;;;2.55;1.00;;;9.60;99.90;;;;;;5043561;28;20468;-70
2022/05/29 02:30:28;;;;;;;6.32;1.10;;;9.60;99.90;;;;;;5064871;28;20066;-70
2022/05/29 02:32:56;;;;;;;3.83;1.13;;;9.60;99.90;;;;;;5057059;28;20056;-70
2022/05/29 02:35:37;;;;;;;5.20;1.00;;;9.60;99.90;;;;;;5045602;28;20036;-70
2022/05/29 02:38:21;;;;;;;1.20;0.70;;;9.60;99.90;;;;;;5054162;28;20039;-70
2022/05/29 02:40:57;;;;;;;1.52;0.88;;;9.60;99.90;;;;;;5056103;28;20052;-70
2022/05/29 02:43:51;;;;;;;0.90;0.63;;;9.60;99.90;;;;;;5054204;28;20651;-70
2022/05/29 02:46:31;;;;;;;1.60;0.90;;;9.60;99.90;;;;;;5040860;28;20064;-70
2022/05/29 02:49:09;;;;;;;3.45;0.80;;;9.60;99.90;;;;;;5063304;28;20123;-70
2022/05/29 02:51:48;;;;;;;5.65;0.90;;;9.60;99.90;;;;;;5062853;28;20039;-70
2022/05/29 02:54:25;;;;;;;6.10;1.15;;;9.60;99.90;;;;;;5052830;28;20036;-70
2022/05/29 02:56:54;;;;;;;5.45;1.00;;;9.60;99.90;;;;;;5060960;28;20131;-70
2022/05/29 02:59:23;;;;;;;1.48;0.85;;;9.60;99.90;;;;;;5054293;28;20044;-70
2022/05/29 03:01:58;;;;;;;6.28;1.33;;;9.60;99.90;;;;;;5043325;28;20028;-70
2022/05/29 03:05:00;;;;;;;6.03;1.08;;;9.60;99.90;;;;;;5051222;28;20127;-70
2022/05/29 03:07:41;;;;;;;3.25;0.73;;;9.60;99.90;;;;;;5052654;28;20086;-70
2022/05/29 03:10:19;;;;;;;0.82;0.50;;;9.60;99.90;;;;;;5051225;28;20040;-70
2022/05/29 03:13:10;;;;;;;1.42;0.70;;;9.60;99.90;;;;;;5054438;28;20056;-70
2022/05/29 03:15:49;;;;;;;5.07;0.95;;;9.60;99.90;;;;;;5049922;28;20127;-70
2022/05/29 03:18:39;;;;;;;2.22;0.93;;;9.60;99.90;;;;;;5035193;28;20036;-70
2022/05/29 03:21:31;;;;;;;3.30;0.80;;;9.60;99.90;;;;;;5049506;28;20078;-70
2022/05/29 03:24:09;;;;;;;2.40;0.65;;;9.60;99.90;;;;;;5032164;28;20452;-70
2022/05/29 03:27:00;;;;;;;5.88;0.90;;;9.60;99.90;;;;;;5054435;28;20127;-70
2022/05/29 03:29:37;;;;;;;10.85;1.42;;;9.60;99.90;;;;;;5043227;28;20972;-70
2022/05/29 03:32:03;;;;;;;1.42;0.88;;;9.60;99.90;;;;;;5052592;28;20076;-70
2022/05/29 03:34:29;;;;;;;3.72;0.65;;;9.50;99.90;;;;;;5053903;28;20051;-70
2022/05/29 03:36:55;;;;;;;1.58;0.85;;;9.50;99.90;;;;;;5053235;28;20036;-70
2022/05/29 03:39:20;;;;;;;2.42;0.98;;;9.50;99.90;;;;;;5053682;28;20033;-70
2022/05/29 03:41:52;;;;;;;2.50;0.95;;;9.60;99.90;;;;;;5054493;28;20474;-70
2022/05/29 03:44:20;;;;;;;2.17;0.57;;;9.60;99.90;;;;;;5044246;28;20529;-70
2022/05/29 03:46:46;;;;;;;1.63;0.60;;;9.60;99.90;;;;;;5042539;28;20055;-69
2022/05/29 03:49:14;;;;;;;2.33;0.70;;;9.60;99.90;;;;;;5049096;28;20029;-69
2022/05/29 03:51:39;;;;;;;2.50;0.88;;;9.60;99.90;;;;;;5070182;28;20046;-70
2022/05/29 03:54:06;;;;;;;2.10;0.40;;;9.60;99.90;;;;;;5034423;28;20251;-70
2022/05/29 03:56:32;;;;;;;1.63;0.60;;;9.60;99.90;;;;;;5052104;28;20040;-70
2022/05/29 03:58:57;;;;;;;2.38;0.77;;;9.60;99.90;;;;;;5050638;28;20035;-70
2022/05/29 04:01:24;;;;;;;2.33;0.73;;;9.60;99.90;;;;;;5049406;28;20066;-70
2022/05/29 04:03:53;;;;;;;4.78;0.90;;;9.60;99.90;;;;;;5032232;28;20036;-70
2022/05/29 04:06:19;;;;;;;2.05;0.73;;;9.60;99.90;;;;;;5048754;28;20088;-70
2022/05/29 04:14:12;;;;;;;2.15;0.88;;;9.60;99.90;;;;;;5047243;28;20064;-70
2022/05/29 04:16:38;;;;;;;4.45;0.77;;;9.70;99.90;;;;;;5053720;28;20036;-70
2022/05/29 04:19:03;;;;;;;3.25;1.10;;;9.70;99.90;;;;;;5049766;28;20033;-70
2022/05/29 04:21:29;;;;;;;8.07;0.90;;;9.70;99.90;;;;;;5050145;28;20036;-70
2022/05/29 04:23:55;;;;;;;2.78;0.77;;;9.70;99.90;;;;;;5049151;28;20048;-70
2022/05/29 04:26:20;;;;;;;6.25;1.05;;;9.70;99.90;;;;;;5074683;28;20044;-70
2022/05/29 04:28:46;;;;;;;3.15;0.98;;;9.70;99.90;;;;;;5048177;28;20041;-70
2022/05/29 04:31:11;;;;;;;1.55;0.80;;;9.70;99.90;;;;;;5052683;28;20043;-70
2022/05/29 04:33:37;;;;;;;1.10;0.85;;;9.70;99.90;;;;;;5056115;28;20071;-70
2022/05/29 04:36:03;;;;;;;2.58;0.40;;;9.70;99.90;;;;;;5034702;28;20036;-70
2022/05/29 04:38:29;;;;;;;1.63;0.88;;;9.70;99.90;;;;;;5051258;28;20035;-70
2022/05/29 04:40:56;;;;;;;0.50;0.28;;;9.70;99.90;;;;;;5049896;28;20037;-70
2022/05/29 04:43:22;;;;;;;2.05;0.55;;;9.70;99.90;;;;;;5053140;28;20151;-70
2022/05/29 04:45:54;;;;;;;2.00;0.75;;;9.70;99.90;;;;;;5050888;28;20998;-70
2022/05/29 04:48:20;;;;;;;1.23;0.40;;;9.70;99.90;;;;;;5049833;28;20450;-70
2022/05/29 04:50:46;;;;;;;2.85;0.95;;;9.80;99.90;;;;;;5049803;28;20106;-70
2022/05/29 04:53:11;;;;;;;2.10;0.63;;;9.80;99.90;;;;;;5048652;28;20048;-70
2022/05/29 04:55:41;;;;;;;2.67;0.60;;;9.80;99.90;;;;;;5048506;28;20036;-70
2022/05/29 04:58:08;;;;;;;1.85;0.75;;;9.80;99.90;;;;;;5048951;28;20393;-70
2022/05/29 05:00:34;;;;;;;2.40;0.47;;;9.80;99.90;;;;;;5066730;28;20032;-70
2022/05/29 05:03:01;;;;;;;2.22;0.73;;;9.80;99.90;;;;;;5056523;28;20054;-70
2022/05/29 05:05:27;;;;;;;6.55;1.02;;;9.80;99.90;;;;;;5065243;28;20040;-70
2022/05/29 05:07:53;;;;;;;2.15;0.70;;;9.80;99.90;;;;;;5049906;28;20148;-70
2022/05/29 05:10:18;;;;;;;1.70;0.38;;;9.80;99.90;;;;;;5034198;28;20111;-70
2022/05/29 05:12:45;;;;;;;1.88;0.30;;;9.90;99.90;;;;;;5047753;28;20036;-69
2022/05/29 05:15:13;;;;;;;0.20;0.20;;;9.90;99.90;;;;;;5046486;28;20516;-70
2022/05/29 05:17:39;;;;;;;1.70;0.40;;;9.80;99.90;;;;;;5051771;28;20508;-69
2022/05/29 05:20:06;;;;;;;0.38;0.28;;;9.90;99.90;;;;;;5052539;28;20037;-70
2022/05/29 05:22:32;;;;;;;2.65;0.43;;;9.80;99.90;;;;;;5057321;28;20048;-70
2022/05/29 05:24:58;;;;;;;3.17;0.60;;;9.80;99.90;;;;;;5054295;28;20036;-70
2022/05/29 05:27:23;;;;;;;0.55;0.32;;;9.90;99.90;;;;;;5049875;28;20060;-70
2022/05/29 05:29:49;;;;;;;4.60;0.43;;;9.90;99.90;;;;;;5065679;28;20043;-70
2022/05/29 05:32:14;;;;;;;2.63;0.40;;;9.90;99.90;;;;;;5048260;28;20419;-70
2022/05/29 05:34:41;;;;;;;7.63;0.60;;;9.90;99.90;;;;;;5049132;28;20049;-70
2022/05/29 05:37:08;;;;;;;0.55;0.30;;;9.90;99.90;;;;;;5038966;28;20029;-70
2022/05/29 05:39:33;;;;;;;0.65;0.35;;;9.90;99.90;;;;;;5053406;28;20036;-70
2022/05/29 05:41:59;;;;;;;3.72;0.60;;;10.00;99.90;;;;;;5050452;28;20130;-70
2022/05/29 05:44:24;;;;;;;0.55;0.20;;;10.00;99.90;;;;;;5049050;28;20036;-70
2022/05/29 05:46:56;;;;;;;0.38;0.30;;;10.10;99.90;;;;;;5050278;28;20099;-70
2022/05/29 05:49:23;;;;;;;0.98;0.50;;;10.10;99.90;;;;;;5049627;28;20047;-70
2022/05/29 05:51:50;;;;;;;2.05;0.40;;;10.20;99.90;;;;;;5034162;28;20036;-70
2022/05/29 05:54:17;;;;;;;1.58;0.60;;;10.20;99.90;;;;;;5033555;28;20033;-70
2022/05/29 05:56:45;;;;;;;9.07;0.57;;;10.20;99.90;;;;;;5044884;28;20032;-70
2022/05/29 05:59:11;;;;;;;3.95;0.52;;;10.20;99.90;;;;;;5048803;28;20041;-69
2022/05/29 06:01:37;;;;;;;2.83;1.02;;;10.30;99.90;;;;;;5058368;28;20028;-70
2022/05/29 06:04:03;;;;;;;1.20;0.50;;;10.20;99.90;;;;;;5047797;28;20047;-70
2022/05/29 06:06:29;;;;;;;3.60;0.50;;;10.30;99.90;;;;;;5053540;28;20036;-70
2022/05/29 06:08:56;;;;;;;2.15;0.30;;;10.30;99.90;;;;;;5035366;28;20050;-70
2022/05/29 06:11:23;;;;;;;1.02;0.25;;;10.20;99.90;;;;;;5034225;28;20032;-70
2022/05/29 06:13:49;;;;;;;0.63;0.30;;;10.20;99.90;;;;;;5048667;28;20041;-69
2022/05/29 06:16:15;;;;;;;1.60;0.57;;;10.20;99.90;;;;;;5031642;28;20048;-70
2022/05/29 06:18:41;;;;;;;1.92;0.40;;;10.20;99.90;;;;;;5043404;28;20036;-70
2022/05/29 06:21:07;;;;;;;2.70;0.40;;;10.10;99.90;;;;;;5047522;28;20040;-70
2022/05/29 06:23:34;;;;;;;5.90;0.82;;;10.10;99.90;;;;;;5044706;28;20036;-70
2022/05/29 06:26:05;;;;;;;1.70;0.50;;;10.10;99.90;;;;;;5054190;28;20046;-70
2022/05/29 06:28:31;;;;;;;0.73;0.40;;;10.10;99.90;;;;;;5053006;28;20143;-70
2022/05/29 06:30:57;;;;;;;0.98;0.57;;;10.00;99.90;;;;;;5068661;28;20538;-70
2022/05/29 06:33:26;;;;;;;4.32;1.02;;;10.00;99.90;;;;;;5055088;28;20055;-70
2022/05/29 06:35:54;;;;;;;0.85;0.40;;;10.00;99.90;;;;;;5055249;28;20044;-70
2022/05/29 06:38:20;;;;;;;1.83;0.65;;;10.00;99.90;;;;;;5055394;28;20119;-70
2022/05/29 06:40:49;;;;;;;3.78;0.55;;;10.00;99.90;;;;;;5056512;28;20717;-70
2022/05/29 06:43:15;;;;;;;1.33;0.60;;;10.00;99.90;;;;;;5072060;28;20041;-70
2022/05/29 06:45:41;;;;;;;3.03;0.52;;;10.10;99.90;;;;;;5070061;28;20037;-71
2022/05/29 06:48:07;;;;;;;1.23;0.60;;;10.10;99.90;;;;;;5073507;28;20501;-70
2022/05/29 06:50:32;;;;;;;3.75;0.68;;;10.10;99.90;;;;;;5051853;28;20518;-70
2022/05/29 06:52:58;;;;;;;1.92;0.65;;;10.10;99.90;;;;;;5054564;28;20404;-73
2022/05/29 06:55:25;;;;;;;1.17;0.47;;;10.20;99.90;;;;;;5041361;28;20035;-70
2022/05/29 06:57:52;;;;;;;0.47;0.30;;;10.20;99.90;;;;;;5048983;28;20036;-70
2022/05/29 07:08:40;;;;;;;3.80;0.82;;;10.40;99.90;;;;;;5051324;28;20076;-74
2022/05/29 07:11:10;;;;;;;1.98;0.40;;;10.40;99.90;;;;;;5051102;28;20186;-71
2022/05/29 07:13:36;;;;;;;2.35;0.55;;;10.40;99.90;;;;;;5045584;28;20178;-70
2022/05/29 07:16:03;;;;;;;2.20;0.50;;;10.40;99.90;;;;;;5064433;28;20067;-70
2022/05/29 07:18:29;;;;;;;4.03;0.57;;;10.50;99.90;;;;;;5055745;28;20032;-70
2022/05/29 07:20:58;;;;;;;3.03;0.50;;;10.50;99.90;;;;;;5051506;28;20043;-71
2022/05/29 07:23:24;;;;;;;2.28;0.50;;;10.50;99.90;;;;;;5052663;28;20052;-70
2022/05/29 07:25:51;;;;;;;5.03;0.73;;;10.50;99.90;;;;;;5070672;28;20101;-71
2022/05/29 07:28:16;;;;;;;0.95;0.40;;;10.60;99.90;;;;;;5052023;28;20036;-70
2022/05/29 07:30:42;;;;;;;5.05;1.10;;;10.60;99.90;;;;;;5054966;28;20040;-71
2022/05/29 07:33:07;;;;;;;5.28;0.60;;;10.60;99.90;;;;;;5053032;28;20140;-70
2022/05/29 07:35:33;;;;;;;1.48;0.57;;;10.70;99.90;;;;;;5053402;28;20123;-71
2022/05/29 07:38:00;;;;;;;1.83;0.73;;;10.70;99.90;;;;;;5050065;28;20078;-71
2022/05/29 07:40:26;;;;;;;1.25;0.40;;;10.80;99.90;;;;;;5052489;28;20040;-70
2022/05/29 07:45:35;;;;;;;1.08;0.40;;;10.90;99.90;;;;;;5052358;28;20043;-70
2022/05/29 07:48:01;;;;;;;4.05;0.43;;;10.90;99.90;;;;;;5052071;28;20073;-71
2022/05/29 07:50:27;;;;;;;3.90;0.60;;;10.90;99.90;;;;;;5055059;28;20047;-71
2022/05/29 07:52:54;;;;;;;3.00;0.63;;;10.90;99.90;;;;;;5036663;28;20563;-71
2022/05/29 07:55:21;;;;;;;2.75;0.47;;;10.90;99.90;;;;;;5055340;28;20032;-70
2022/05/29 07:57:47;;;;;;;2.85;0.60;;;10.90;99.90;;;;;;5053261;28;20489;-70
2022/05/29 08:00:16;;;;;;;4.70;0.50;;;10.90;99.90;;;;;;5048872;28;20294;-71
2022/05/29 08:02:42;;;;;;;6.97;0.90;;;10.90;99.90;;;;;;5054118;28;20169;-73
2022/05/29 08:05:10;;;;;;;0.57;0.20;;;10.80;99.90;;;;;;5051604;28;20044;-71
2022/05/29 08:07:36;;;;;;;0.80;0.40;;;10.80;99.90;;;;;;5048648;28;20263;-70
2022/05/29 08:10:03;;;;;;;1.17;0.30;;;10.70;99.90;;;;;;5049576;28;20538;-70
2022/05/29 08:12:28;;;;;;;0.65;0.43;;;10.70;99.90;;;;;;5053564;28;20039;-70
2022/05/29 08:14:54;;;;;;;1.95;0.60;;;10.60;99.90;;;;;;5047354;28;20036;-70
2022/05/29 08:17:19;;;;;;;0.70;0.17;;;10.60;99.90;;;;;;5061441;28;20036;-70
2022/05/29 08:19:45;;;;;;;0.63;0.32;;;10.60;99.90;;;;;;5051340;28;20040;-69
2022/05/29 08:22:11;;;;;;;7.53;0.68;;;10.60;99.90;;;;;;5048141;28;20102;-70
2022/05/29 08:30:51;;;;;;;2.33;0.80;;;10.70;99.90;;;;;;5048649;28;20390;-70
2022/05/29 08:33:21;;;;;;;1.55;0.40;;;10.70;99.90;;;;;;5052336;28;20048;-70
2022/05/29 08:35:51;;;;;;;0.65;0.30;;;10.80;99.90;;;;;;5054433;28;20051;-70
2022/05/29 08:38:17;;;;;;;1.85;0.30;;;10.70;99.90;;;;;;5049836;28;20444;-70
2022/05/29 08:40:50;;;;;;;0.75;0.35;;;10.80;99.90;;;;;;5062217;28;20063;-70
2022/05/29 08:43:28;;;;;;;0.63;0.30;;;10.80;99.90;;;;;;5051741;28;20089;-70
2022/05/29 08:45:54;;;;;;;1.50;0.40;;;10.80;99.90;;;;;;5053388;28;20490;-70
2022/05/29 08:48:24;;;;;;;0.60;0.30;;;10.80;99.90;;;;;;5049194;28;20074;-70
2022/05/29 08:51:07;;;;;;;0.38;0.20;;;10.90;99.90;;;;;;5069254;28;20032;-70
2022/05/29 08:53:37;;;;;;;2.30;0.20;;;10.90;99.90;;;;;;5053973;28;20044;-70
2022/05/29 08:56:28;;;;;;;1.98;0.50;;;10.90;99.90;;;;;;5037176;28;20508;-70
2022/05/29 08:59:10;;;;;;;1.75;0.35;;;11.00;99.90;;;;;;5051885;28;20044;-70
2022/05/29 09:01:59;;;;;;;1.42;0.45;;;11.10;99.90;;;;;;5050837;28;20401;-70
2022/05/29 09:04:31;;;;;;;1.90;0.47;;;11.10;99.90;;;;;;5029515;28;20047;-70
2022/05/29 09:07:02;;;;;;;1.75;0.40;;;11.10;99.90;;;;;;5047243;28;20044;-70
2022/05/29 09:09:42;;;;;;;3.38;0.60;;;11.10;99.90;;;;;;5047966;28;20062;-71
2022/05/29 09:12:14;;;;;;;2.35;0.50;;;11.00;99.90;;;;;;5035855;28;20509;-70
2022/05/29 09:14:51;;;;;;;2.10;0.50;;;10.90;99.90;;;;;;5044671;28;20829;-70
2022/05/29 09:17:31;;;;;;;0.52;0.20;;;10.80;99.90;;;;;;5047551;28;20039;-70
2022/05/29 09:20:29;;;;;;;0.82;0.30;;;10.80;99.90;;;;;;5053199;28;20040;-70
2022/05/29 09:23:00;;;;;;;0.28;0.22;;;10.80;99.90;;;;;;5046572;28;20337;-70
2022/05/29 09:25:45;;;;;;;1.08;0.30;;;10.80;99.90;;;;;;5050565;28;20040;-70
2022/05/29 09:28:13;;;;;;;1.08;0.38;;;10.90;99.90;;;;;;5030999;28;20048;-70
2022/05/29 09:30:40;;;;;;;1.30;0.30;;;11.00;99.90;;;;;;5052567;28;20051;-70
2022/05/29 09:33:17;;;;;;;2.72;0.52;;;11.10;99.90;;;;;;5050339;28;20139;-70
2022/05/29 09:35:59;;;;;;;1.40;0.40;;;11.10;99.90;;;;;;5049432;28;20044;-70
2022/05/29 09:38:34;;;;;;;0.25;0.20;;;11.20;99.90;;;;;;5075312;28;20032;-70
2022/05/29 09:41:13;;;;;;;1.35;0.55;;;11.20;99.90;;;;;;5038623;28;20044;-70
2022/05/29 09:43:39;;;;;;;0.35;0.20;;;11.10;99.90;;;;;;5046413;28;20046;-70
2022/05/29 09:46:20;;;;;;;1.20;0.50;;;11.10;99.90;;;;;;5045167;28;20041;-70
2022/05/29 09:51:50;;;;;;;1.60;0.40;;;11.00;99.90;;;;;;5077112;28;20044;-70
2022/05/29 09:54:29;;;;;;;1.08;0.30;;;10.80;99.90;;;;;;5045717;28;20044;-70
2022/05/29 09:57:06;;;;;;;4.57;0.50;;;10.80;99.90;;;;;;5052553;28;20028;-70
2022/05/29 09:59:40;;;;;;;0.20;0.10;;;10.70;99.90;;;;;;5049724;28;20047;-70
2022/05/29 10:02:19;;;;;;;0.22;0.15;;;10.70;99.90;;;;;;5051814;28;20123;-70
2022/05/29 10:04:45;;;;;;;0.63;0.30;;;10.70;99.90;;;;;;5051216;28;20037;-70
2022/05/29 10:07:18;;;;;;;1.38;0.30;;;10.80;99.90;;;;;;5053295;28;20559;-71
2022/05/29 10:10:11;;;;;;;0.10;0.10;;;10.90;99.90;;;;;;5051764;28;20244;-70
2022/05/29 10:12:48;;;;;;;3.80;0.30;;;10.90;99.90;;;;;;5067337;28;20029;-70
2022/05/29 10:15:26;;;;;;;0.52;0.10;;;11.00;99.90;;;;;;5051927;28;20482;-70
2022/05/29 10:17:53;;;;;;;1.95;0.20;;;11.00;99.90;;;;;;5044064;28;20078;-70
2022/05/29 10:20:31;;;;;;;3.72;0.43;;;11.00;99.90;;;;;;5050665;28;20490;-70
2022/05/29 10:23:00;;;;;;;0.55;0.22;;;11.00;99.90;;;;;;5055141;28;20040;-70
2022/05/29 10:25:30;;;;;;;0.45;0.40;;;10.90;99.90;;;;;;5056754;28;20640;-69
2022/05/29 10:28:00;;;;;;;0.22;0.17;;;10.90;99.90;;;;;;5042532;28;20451;-70
2022/05/29 10:30:47;;;;;;;1.48;0.68;;;10.80;99.90;;;;;;5077873;28;20369;-70
2022/05/29 10:33:22;;;;;;;3.80;0.55;;;10.90;99.90;;;;;;5080056;28;20502;-70
2022/05/29 10:35:49;;;;;;;2.03;0.28;;;10.90;99.90;;;;;;5062488;28;20513;-70
2022/05/29 10:38:17;;;;;;;0.50;0.28;;;10.90;99.90;;;;;;5061352;28;20037;-70
2022/05/29 10:40:45;;;;;;;1.95;0.40;;;11.00;99.90;;;;;;5062332;28;20067;-70
2022/05/29 10:43:11;;;;;;;1.65;0.55;;;11.10;99.90;;;;;;5067037;28;20465;-70
2022/05/29 10:45:47;;;;;;;2.50;0.45;;;11.20;99.90;;;;;;5076101;28;20131;-70
2022/05/29 10:48:18;;;;;;;0.50;0.28;;;11.30;99.90;;;;;;5037662;28;20040;-70
2022/05/29 10:51:06;;;;;;;0.70;0.50;;;11.40;99.90;;;;;;5065010;28;20078;-70
2022/05/29 10:53:58;;;;;;;4.10;0.65;;;11.50;99.90;;;;;;5062496;28;20032;-70
2022/05/29 10:56:23;;;;;;;4.88;0.50;;;11.60;99.90;;;;;;5061618;28;20560;-70
2022/05/29 10:59:07;;;;;;;0.38;0.22;;;11.60;99.90;;;;;;5058855;28;20120;-70
2022/05/29 11:05:24;;;;;;;0.32;0.15;;;11.50;99.90;;;;;;5063813;28;20409;-70
2022/05/29 11:08:12;;;;;;;5.15;0.52;;;11.40;99.90;;;;;;5065571;28;20027;-70
2022/05/29 11:11:05;;;;;;;0.40;0.30;;;11.40;99.90;;;;;;5065204;28;20497;-70
2022/05/29 11:14:03;;;;;;;0.73;0.30;;;11.40;99.90;;;;;;5061730;28;20047;-70
2022/05/29 11:16:54;;;;;;;0.55;0.30;;;11.40;99.90;;;;;;5063290;28;20398;-70
2022/05/29 11:19:49;;;;;;;0.90;0.40;;;11.40;99.90;;;;;;5064852;28;20089;-70
2022/05/29 11:22:25;;;;;;;7.10;0.60;;;11.40;99.90;;;;;;5063944;28;20044;-70
2022/05/29 11:25:28;;;;;;;0.68;0.30;;;11.30;99.90;;;;;;5062209;28;20224;-70
2022/05/29 11:28:08;;;;;;;3.90;0.40;;;11.30;99.90;;;;;;5061681;28;20039;-70
2022/05/29 11:31:03;;;;;;;1.77;0.32;;;11.40;99.90;;;;;;5063273;28;20079;-70
2022/05/29 11:33:44;;;;;;;1.17;0.30;;;11.40;99.90;;;;;;5046297;28;20539;-70
2022/05/29 11:36:28;;;;;;;1.42;0.38;;;11.50;99.90;;;;;;5084114;28;20043;-69
2022/05/29 11:39:12;;;;;;;1.05;0.40;;;11.60;99.90;;;;;;5060733;28;20072;-70
2022/05/29 11:41:48;;;;;;;3.55;0.55;;;11.70;99.90;;;;;;5060468;28;20062;-70
2022/05/29 11:44:32;;;;;;;0.85;0.40;;;11.80;99.90;;;;;;5058379;28;20085;-70
2022/05/29 11:53:09;;;;;;;0.52;0.25;;;11.70;99.90;;;;;;5059368;28;20052;-70
2022/05/29 11:55:40;;;;;;;0.68;0.38;;;11.50;99.90;;;;;;5080824;28;20028;-70
2022/05/29 11:58:06;;;;;;;0.20;0.17;;;11.40;99.90;;;;;;5046958;28;20047;-70
2022/05/29 12:00:43;;;;;;;2.20;0.28;;;11.30;99.90;;;;;;5046683;28;20401;-70
2022/05/29 12:03:21;;;;;;;0.57;0.30;;;11.20;99.90;;;;;;5064518;28;20040;-70
2022/05/29 12:05:53;;;;;;;0.90;0.32;;;11.10;99.90;;;;;;5061948;28;20048;-70
2022/05/29 12:08:40;;;;;;;0.55;0.30;;;11.00;99.90;;;;;;5064823;28;20048;-70
2022/05/29 12:11:28;;;;;;;3.00;0.40;;;11.00;99.90;;;;;;5063501;28;20479;-70
2022/05/29 12:14:02;;;;;;;0.70;0.20;;;11.10;99.90;;;;;;5048803;28;20071;-70
2022/05/29 12:16:30;;;;;;;0.00;0.00;;;11.10;99.90;;;;;;5064175;28;20032;-70
2022/05/29 12:18:59;;;;;;;2.65;0.35;;;11.10;99.90;;;;;;5064201;28;20173;-70
2022/05/29 12:21:42;;;;;;;2.22;0.75;;;11.20;99.90;;;;;;5064140;28;20040;-70
2022/05/29 12:24:11;;;;;;;0.98;0.43;;;11.30;99.90;;;;;;5064430;28;20358;-70
2022/05/29 12:27:02;;;;;;;1.08;0.43;;;11.40;99.90;;;;;;5060964;28;20065;-70
2022/05/29 12:29:35;;;;;;;0.77;0.40;;;11.40;99.90;;;;;;5067048;28;20097;-70
2022/05/29 12:32:22;;;;;;;0.50;0.30;;;11.60;99.90;;;;;;5064579;28;20436;-70
2022/05/29 12:35:00;;;;;;;1.88;0.40;;;11.70;99.90;;;;;;5047220;28;20086;-71
2022/05/29 12:37:47;;;;;;;5.95;0.60;;;11.80;99.90;;;;;;5066722;28;20032;-70
2022/05/29 12:40:35;;;;;;;0.60;0.40;;;11.90;99.90;;;;;;5041207;28;20039;-70
2022/05/29 12:43:33;;;;;;;1.35;0.40;;;11.90;99.90;;;;;;5040714;28;20097;-70
2022/05/29 12:46:08;;;;;;;1.02;0.47;;;12.00;99.90;;;;;;5052085;28;20040;-70
2022/05/29 12:49:08;;;;;;;0.43;0.17;;;12.00;99.90;;;;;;5044750;28;20047;-70
2022/05/29 12:51:43;;;;;;;1.13;0.47;;;11.90;99.90;;;;;;5058704;28;20465;-70
2022/05/29 12:54:37;;;;;;;0.50;0.40;;;11.90;99.90;;;;;;5061418;28;20036;-70
2022/05/29 12:57:39;;;;;;;0.65;0.43;;;11.90;99.90;;;;;;5059815;28;20094;-70
2022/05/29 13:00:29;;;;;;;0.65;0.40;;;11.90;99.90;;;;;;5061415;28;20032;-70
2022/05/29 13:03:19;;;;;;;2.13;0.50;;;11.90;99.90;;;;;;5063963;28;20571;-70
2022/05/29 13:06:04;;;;;;;3.03;0.52;;;11.90;99.90;;;;;;5043849;28;20039;-70
2022/05/29 13:09:02;;;;;;;0.52;0.30;;;11.80;99.90;;;;;;5061046;28;20439;-70
2022/05/29 13:11:32;;;;;;;1.58;0.45;;;11.70;99.90;;;;;;5022285;28;20047;-70
2022/05/29 13:14:03;;;;;;;0.70;0.40;;;11.70;99.90;;;;;;5061032;28;20050;-70
2022/05/29 13:16:35;;;;;;;3.55;0.45;;;11.60;99.90;;;;;;5057168;28;20032;-70
2022/05/29 13:19:13;;;;;;;1.98;0.50;;;11.60;99.90;;;;;;5039746;28;20036;-70
2022/05/29 13:22:00;;;;;;;1.20;0.20;;;11.60;99.90;;;;;;5056433;28;20047;-72
2022/05/29 13:24:32;;;;;;;0.43;0.30;;;11.60;99.90;;;;;;5058174;28;20055;-70
2022/05/29 13:27:13;;;;;;;1.20;0.45;;;11.70;99.90;;;;;;5052707;28;20032;-70
2022/05/29 13:29:46;;;;;;;0.98;0.60;;;11.70;99.90;;;;;;5057605;28;20040;-70
2022/05/29 13:32:16;;;;;;;2.70;0.52;;;11.80;99.90;;;;;;5068592;28;20524;-70
2022/05/29 13:35:04;;;;;;;2.40;0.60;;;11.80;99.90;;;;;;5053165;28;20047;-70
2022/05/29 13:37:32;;;;;;;3.95;0.63;;;11.90;99.90;;;;;;5069934;28;20036;-70
2022/05/29 13:40:29;;;;;;;0.45;0.30;;;12.00;99.90;;;;;;5050246;28;20036;-70
2022/05/29 13:43:15;;;;;;;1.55;0.50;;;12.00;99.90;;;;;;5050521;28;20040;-70
2022/05/29 13:45:43;;;;;;;1.95;0.40;;;12.10;99.90;;;;;;5051324;28;20083;-70
2022/05/29 13:48:18;;;;;;;3.58;0.30;;;12.10;99.90;;;;;;5087873;28;20386;-70
2022/05/29 13:50:46;;;;;;;2.75;0.63;;;12.00;99.90;;;;;;5061395;28;20051;-70
2022/05/29 13:53:20;;;;;;;0.50;0.22;;;12.00;99.90;;;;;;5052927;28;20090;-70
2022/05/29 13:55:57;;;;;;;1.20;0.35;;;12.00;99.90;;;;;;5053464;28;20267;-70
2022/05/29 14:04:18;;;;;;;3.15;0.45;;;11.90;99.90;;;;;;5050651;28;20122;-70
2022/05/29 14:06:47;;;;;;;1.05;0.32;;;11.90;99.90;;;;;;5050972;28;20443;-70